createdAt,value
2018-07-08T00:03:27.379Z,2.30
2018-07-08T00:05:05.477Z,2.30
2018-07-08T00:05:38.524Z,2.90
2018-07-08T00:06:11.564Z,2.40
2018-07-08T00:06:44.604Z,2.70
2018-07-08T00:07:17.636Z,2.33
2018-07-08T00:07:50.677Z,2.45
2018-07-08T00:08:23.710Z,2.40
2018-07-08T00:08:56.768Z,2.15
2018-07-08T00:09:29.811Z,2.75
2018-07-08T00:10:02.856Z,2.72
2018-07-08T00:10:36.696Z,2.37
2018-07-08T00:11:09.755Z,2.30
2018-07-08T00:12:16.292Z,2.60
2018-07-08T00:12:49.333Z,2.35
2018-07-08T00:13:22.373Z,2.53
2018-07-08T00:13:55.404Z,2.20
2018-07-08T00:14:29.233Z,2.30
2018-07-08T00:15:02.284Z,2.25
2018-07-08T00:15:35.306Z,2.50
2018-07-08T00:16:08.360Z,2.28
2018-07-08T00:16:41.385Z,2.25
2018-07-08T00:17:15.189Z,2.80
2018-07-08T00:17:48.224Z,2.33
2018-07-08T00:18:21.280Z,2.62
2018-07-08T00:18:54.325Z,2.80
2018-07-08T00:19:27.363Z,2.50
2018-07-08T00:20:00.436Z,2.33
2018-07-08T00:20:33.471Z,2.47
2018-07-08T00:21:06.523Z,2.50
2018-07-08T00:21:39.570Z,2.40
2018-07-08T00:22:12.627Z,2.12
2018-07-08T00:22:45.675Z,2.15
2018-07-08T00:23:18.708Z,2.60
2018-07-08T00:23:51.763Z,2.50
2018-07-08T00:24:24.814Z,2.35
2018-07-08T00:24:57.851Z,2.35
2018-07-08T00:25:30.902Z,2.45
2018-07-08T00:26:03.924Z,2.90
2018-07-08T00:26:36.984Z,2.45
2018-07-08T00:27:10.016Z,2.70
2018-07-08T00:27:43.816Z,2.33
2018-07-08T00:28:17.633Z,2.72
2018-07-08T00:28:50.688Z,2.37
2018-07-08T00:29:24.504Z,2.62
2018-07-08T00:29:57.535Z,2.00
2018-07-08T00:30:30.572Z,2.45
2018-07-08T00:31:04.385Z,2.20
2018-07-08T00:31:37.407Z,2.50
2018-07-08T00:32:10.457Z,2.40
2018-07-08T00:32:43.480Z,2.40
2018-07-08T00:33:16.525Z,2.53
2018-07-08T00:33:50.335Z,1.90
2018-07-08T00:34:23.381Z,2.42
2018-07-08T00:34:56.443Z,2.33
2018-07-08T00:35:29.474Z,2.03
2018-07-08T00:36:02.527Z,2.50
2018-07-08T00:36:35.547Z,2.28
2018-07-08T00:37:08.589Z,2.53
2018-07-08T00:37:41.617Z,2.40
2018-07-08T00:38:47.307Z,2.20
2018-07-08T00:39:20.352Z,2.47
2018-07-08T00:39:54.215Z,2.17
2018-07-08T00:40:27.988Z,2.67
2018-07-08T00:41:01.033Z,2.62
2018-07-08T00:41:34.062Z,2.62
2018-07-08T00:42:07.124Z,2.47
2018-07-08T00:42:40.177Z,2.40
2018-07-08T00:43:13.233Z,2.60
2018-07-08T00:43:46.254Z,2.20
2018-07-08T00:44:19.315Z,2.40
2018-07-08T00:44:53.180Z,2.20
2018-07-08T00:45:26.218Z,2.33
2018-07-08T00:46:00.032Z,2.70
2018-07-08T00:46:33.060Z,2.58
2018-07-08T00:47:06.080Z,2.47
2018-07-08T00:47:39.120Z,2.37
2018-07-08T00:48:12.144Z,2.90
2018-07-08T00:48:45.180Z,2.40
2018-07-08T00:49:18.987Z,2.47
2018-07-08T00:49:52.809Z,2.00
2018-07-08T00:50:26.604Z,2.30
2018-07-08T00:50:59.646Z,2.65
2018-07-08T00:51:33.456Z,2.20
2018-07-08T00:52:06.507Z,2.30
2018-07-08T00:52:40.328Z,2.60
2018-07-08T00:53:13.354Z,2.40
2018-07-08T00:53:46.599Z,2.60
2018-07-08T00:54:19.640Z,2.40
2018-07-08T00:54:52.688Z,2.22
2018-07-08T00:55:25.722Z,2.50
2018-07-08T00:55:58.751Z,2.47
2018-07-08T00:56:31.801Z,2.55
2018-07-08T00:57:04.968Z,2.62
2018-07-08T00:57:38.005Z,2.10
2018-07-08T00:58:11.044Z,2.30
2018-07-08T00:58:44.089Z,2.30
2018-07-08T00:59:17.132Z,2.33
2018-07-08T00:59:50.189Z,2.60
2018-07-08T01:00:23.227Z,2.03
2018-07-08T01:00:56.257Z,2.70
2018-07-08T01:01:29.311Z,2.35
2018-07-08T01:02:02.351Z,2.10
2018-07-08T01:02:35.380Z,2.17
2018-07-08T01:03:08.426Z,2.50
2018-07-08T01:03:42.252Z,2.37
2018-07-08T01:04:15.290Z,1.95
2018-07-08T01:04:48.349Z,2.20
2018-07-08T01:05:21.398Z,2.45
2018-07-08T01:05:54.418Z,2.47
2018-07-08T01:06:27.456Z,2.58
2018-07-08T01:07:00.500Z,2.60
2018-07-08T01:07:34.323Z,2.40
2018-07-08T01:08:07.412Z,2.25
2018-07-08T01:08:40.395Z,2.42
2018-07-08T01:09:13.434Z,2.42
2018-07-08T01:09:46.461Z,2.20
2018-07-08T01:10:20.267Z,2.22
2018-07-08T01:10:53.288Z,2.65
2018-07-08T01:11:26.316Z,2.12
2018-07-08T01:11:59.366Z,2.22
2018-07-08T01:12:32.421Z,2.30
2018-07-08T01:13:05.470Z,2.60
2018-07-08T01:13:38.503Z,2.30
2018-07-08T01:14:44.045Z,2.10
2018-07-08T01:16:24.159Z,2.30
2018-07-08T01:22:25.985Z,2.10
2018-07-08T01:28:58.138Z,2.40
2018-07-08T01:30:03.677Z,2.30
2018-07-08T01:30:36.714Z,2.20
2018-07-08T01:31:09.743Z,2.58
2018-07-08T01:31:43.552Z,2.25
2018-07-08T01:32:16.580Z,2.70
2018-07-08T01:32:49.639Z,2.67
2018-07-08T01:33:22.669Z,2.40
2018-07-08T01:33:55.708Z,2.50
2018-07-08T01:34:28.756Z,2.15
2018-07-08T01:35:01.813Z,2.45
2018-07-08T01:37:13.155Z,2.60
2018-07-08T01:37:46.196Z,2.60
2018-07-08T01:45:24.205Z,2.20
2018-07-08T01:45:57.252Z,2.50
2018-07-08T01:46:31.070Z,2.30
2018-07-08T01:47:04.923Z,2.45
2018-07-08T01:47:38.727Z,2.25
2018-07-08T01:48:11.753Z,2.40
2018-07-08T01:48:44.775Z,2.50
2018-07-08T01:49:18.575Z,2.50
2018-07-08T01:49:52.390Z,2.67
2018-07-08T01:50:25.440Z,2.35
2018-07-08T01:50:58.487Z,2.17
2018-07-08T01:51:31.533Z,2.30
2018-07-08T01:52:04.572Z,2.50
2018-07-08T01:52:37.620Z,2.28
2018-07-08T01:53:10.669Z,2.47
2018-07-08T01:54:16.221Z,2.70
2018-07-08T01:58:38.451Z,2.20
2018-07-08T01:59:11.506Z,2.37
2018-07-08T01:59:44.548Z,2.17
2018-07-08T02:00:17.581Z,2.28
2018-07-08T02:00:50.620Z,2.35
2018-07-08T02:01:23.656Z,2.05
2018-07-08T02:01:56.692Z,2.40
2018-07-08T02:02:29.724Z,2.10
2018-07-08T02:03:03.511Z,2.12
2018-07-08T02:03:37.307Z,2.25
2018-07-08T02:04:11.100Z,2.30
2018-07-08T02:04:44.888Z,2.00
2018-07-08T02:05:18.700Z,2.15
2018-07-08T02:05:51.756Z,2.15
2018-07-08T02:06:24.778Z,2.00
2018-07-08T02:06:57.833Z,2.40
2018-07-08T02:07:31.611Z,2.30
2018-07-08T02:08:05.404Z,2.00
2018-07-08T02:08:38.433Z,2.50
2018-07-08T02:09:11.589Z,2.30
2018-07-08T02:09:45.391Z,2.30
2018-07-08T02:10:18.432Z,2.35
2018-07-08T02:10:51.492Z,2.37
2018-07-08T02:11:24.525Z,2.05
2018-07-08T02:11:57.555Z,2.03
2018-07-08T02:12:30.588Z,2.40
2018-07-08T02:13:03.634Z,2.10
2018-07-08T02:13:36.664Z,2.20
2018-07-08T02:14:09.704Z,2.73
2018-07-08T02:14:42.745Z,2.37
2018-07-08T02:15:15.764Z,2.20
2018-07-08T02:15:48.819Z,2.22
2018-07-08T02:16:21.859Z,2.65
2018-07-08T02:16:54.903Z,2.43
2018-07-08T02:17:28.719Z,1.90
2018-07-08T02:18:01.767Z,2.45
2018-07-08T02:18:34.797Z,2.40
2018-07-08T02:19:07.836Z,2.00
2018-07-08T02:19:41.644Z,2.20
2018-07-08T02:20:14.669Z,1.70
2018-07-08T02:20:47.708Z,2.07
2018-07-08T02:21:20.751Z,2.05
2018-07-08T02:21:53.784Z,2.40
2018-07-08T02:22:26.840Z,2.10
2018-07-08T02:23:33.186Z,2.20
2018-07-08T02:24:06.990Z,2.00
2018-07-08T02:24:40.025Z,2.33
2018-07-08T02:25:13.071Z,2.50
2018-07-08T02:25:46.102Z,2.30
2018-07-08T02:26:19.935Z,2.53
2018-07-08T02:26:52.971Z,2.40
2018-07-08T02:27:26.033Z,1.90
2018-07-08T02:27:59.071Z,2.30
2018-07-08T02:28:32.128Z,2.47
2018-07-08T02:29:05.159Z,2.00
2018-07-08T02:29:38.957Z,2.40
2018-07-08T02:30:11.991Z,2.00
2018-07-08T02:30:45.029Z,2.30
2018-07-08T02:31:18.062Z,2.50
2018-07-08T02:32:23.624Z,2.40
2018-07-08T02:32:56.823Z,2.50
2018-07-08T02:33:29.864Z,2.30
2018-07-08T02:34:02.903Z,2.33
2018-07-08T02:34:36.715Z,1.90
2018-07-08T02:36:14.788Z,2.50
2018-07-08T02:36:47.835Z,2.00
2018-07-08T02:37:20.879Z,2.60
2018-07-08T02:37:53.921Z,2.20
2018-07-08T02:38:26.952Z,2.10
2018-07-08T02:40:05.005Z,2.00
2018-07-08T02:41:12.164Z,2.03
2018-07-08T02:41:45.977Z,3.00
2018-07-08T02:42:19.018Z,2.17
2018-07-08T02:42:52.059Z,1.90
2018-07-08T02:43:25.097Z,2.28
2018-07-08T02:43:58.906Z,1.92
2018-07-08T02:44:32.688Z,3.00
2018-07-08T02:45:06.480Z,2.15
2018-07-08T02:45:39.524Z,2.40
2018-07-08T02:46:12.564Z,1.95
2018-07-08T02:46:45.628Z,1.90
2018-07-08T02:47:18.662Z,2.30
2018-07-08T02:47:52.461Z,2.28
2018-07-08T02:48:26.262Z,2.35
2018-07-08T02:48:59.293Z,2.00
2018-07-08T02:49:32.345Z,2.45
2018-07-08T02:50:05.368Z,2.30
2018-07-08T02:50:39.168Z,2.17
2018-07-08T02:51:12.205Z,2.55
2018-07-08T02:51:45.266Z,2.05
2018-07-08T02:52:18.289Z,2.12
2018-07-08T02:52:51.352Z,2.10
2018-07-08T02:53:24.396Z,1.92
2018-07-08T02:53:57.435Z,1.92
2018-07-08T02:54:30.463Z,2.20
2018-07-08T02:55:03.512Z,1.87
2018-07-08T02:55:36.584Z,2.30
2018-07-08T02:56:09.604Z,2.17
2018-07-08T02:56:43.415Z,2.33
2018-07-08T02:57:16.444Z,2.00
2018-07-08T02:57:49.497Z,2.30
2018-07-08T02:58:22.532Z,1.83
2018-07-08T02:58:56.366Z,1.95
2018-07-08T02:59:29.398Z,2.08
2018-07-08T03:00:02.434Z,2.08
2018-07-08T03:00:35.464Z,1.92
2018-07-08T03:01:09.266Z,1.73
2018-07-08T03:01:42.317Z,2.40
2018-07-08T03:02:16.149Z,2.37
2018-07-08T03:02:49.948Z,2.22
2018-07-08T03:03:23.020Z,1.98
2018-07-08T03:03:56.809Z,2.00
2018-07-08T03:04:29.851Z,2.20
2018-07-08T03:05:03.674Z,2.10
2018-07-08T03:05:36.710Z,2.05
2018-07-08T03:06:10.517Z,1.90
2018-07-08T03:06:43.568Z,2.00
2018-07-08T03:07:16.631Z,1.90
2018-07-08T03:07:49.679Z,2.10
2018-07-08T03:08:22.709Z,2.37
2018-07-08T03:08:55.752Z,1.85
2018-07-08T03:09:28.788Z,2.08
2018-07-08T03:10:02.028Z,1.83
2018-07-08T03:10:35.055Z,2.20
2018-07-08T03:11:08.086Z,2.00
2018-07-08T03:11:41.905Z,1.92
2018-07-08T03:12:14.949Z,2.03
2018-07-08T03:12:48.752Z,2.20
2018-07-08T03:13:21.796Z,1.67
2018-07-08T03:13:54.813Z,1.90
2018-07-08T03:14:27.866Z,1.65
2018-07-08T03:15:01.673Z,2.12
2018-07-08T03:15:34.697Z,2.00
2018-07-08T03:16:08.496Z,2.45
2018-07-08T03:16:41.543Z,2.00
2018-07-08T03:17:14.566Z,2.15
2018-07-08T03:17:47.596Z,1.77
2018-07-08T03:18:20.624Z,2.40
2018-07-08T03:18:54.435Z,2.10
2018-07-08T03:19:27.473Z,2.28
2018-07-08T03:20:00.492Z,2.12
2018-07-08T03:20:33.519Z,1.95
2018-07-08T03:21:06.559Z,1.75
2018-07-08T03:21:39.616Z,2.12
2018-07-08T03:22:12.647Z,2.00
2018-07-08T03:22:45.697Z,2.10
2018-07-08T03:23:18.713Z,2.20
2018-07-08T03:23:51.732Z,2.12
2018-07-08T03:24:24.761Z,1.95
2018-07-08T03:24:57.808Z,2.08
2018-07-08T03:25:30.847Z,1.92
2018-07-08T03:26:03.871Z,2.28
2018-07-08T03:26:36.923Z,2.08
2018-07-08T03:27:09.951Z,2.00
2018-07-08T03:27:42.991Z,1.83
2018-07-08T03:28:16.037Z,2.25
2018-07-08T03:28:49.063Z,2.17
2018-07-08T03:29:22.098Z,1.98
2018-07-08T03:29:55.128Z,2.45
2018-07-08T03:30:28.164Z,1.80
2018-07-08T03:31:01.193Z,2.10
2018-07-08T03:31:34.217Z,1.98
2018-07-08T03:32:08.894Z,2.25
2018-07-08T03:32:41.948Z,2.20
2018-07-08T03:33:14.976Z,2.05
2018-07-08T03:33:48.004Z,2.00
2018-07-08T03:34:21.048Z,1.80
2018-07-08T03:34:54.091Z,2.30
2018-07-08T03:35:27.125Z,1.90
2018-07-08T03:36:00.320Z,2.17
2018-07-08T03:36:33.359Z,1.87
2018-07-08T03:37:06.404Z,2.00
2018-07-08T03:37:39.433Z,2.00
2018-07-08T03:38:12.611Z,1.70
2018-07-08T03:38:45.646Z,2.00
2018-07-08T03:39:18.700Z,2.12
2018-07-08T03:39:51.731Z,1.85
2018-07-08T03:40:24.769Z,1.95
2018-07-08T03:40:57.817Z,1.98
2018-07-08T03:41:30.843Z,1.90
2018-07-08T03:42:03.896Z,2.00
2018-07-08T03:42:37.700Z,2.17
2018-07-08T03:43:10.727Z,1.95
2018-07-08T03:43:43.977Z,1.62
2018-07-08T03:44:17.008Z,2.03
2018-07-08T03:44:50.805Z,2.20
2018-07-08T03:45:23.841Z,2.00
2018-07-08T03:45:56.859Z,2.00
2018-07-08T03:46:29.907Z,2.10
2018-07-08T03:47:02.945Z,2.20
2018-07-08T03:47:35.975Z,1.70
2018-07-08T03:48:09.776Z,2.60
2018-07-08T03:48:42.814Z,2.05
2018-07-08T03:49:15.852Z,2.15
2018-07-08T03:49:48.935Z,2.17
2018-07-08T03:50:21.973Z,1.87
2018-07-08T03:50:55.776Z,2.08
2018-07-08T03:51:28.807Z,2.05
2018-07-08T03:52:01.852Z,1.80
2018-07-08T03:52:34.880Z,2.33
2018-07-08T03:53:07.929Z,1.92
2018-07-08T03:53:40.968Z,2.03
2018-07-08T03:54:14.029Z,2.10
2018-07-08T03:54:47.296Z,1.98
2018-07-08T03:55:21.132Z,2.00
2018-07-08T03:55:54.152Z,1.87
2018-07-08T03:56:27.220Z,1.95
2018-07-08T03:57:01.052Z,1.83
2018-07-08T03:57:34.077Z,2.20
2018-07-08T03:58:07.123Z,2.17
2018-07-08T03:58:40.189Z,1.80
2018-07-08T03:59:13.224Z,2.42
2018-07-08T03:59:47.027Z,2.10
2018-07-08T04:00:20.052Z,1.90
2018-07-08T04:00:53.292Z,2.10
2018-07-08T04:01:26.336Z,2.10
2018-07-08T04:01:59.368Z,2.85
2018-07-08T04:02:32.383Z,1.90
2018-07-08T04:03:06.188Z,1.73
2018-07-08T04:03:39.220Z,1.98
2018-07-08T04:04:12.278Z,2.10
2018-07-08T04:04:45.304Z,1.83
2018-07-08T04:05:19.115Z,2.08
2018-07-08T04:05:52.646Z,1.77
2018-07-08T04:06:25.693Z,2.00
2018-07-08T04:06:59.480Z,1.95
2018-07-08T04:07:33.286Z,2.85
2018-07-08T04:08:06.313Z,1.92
2018-07-08T04:08:39.361Z,1.95
2018-07-08T04:09:12.397Z,2.12
2018-07-08T04:09:46.368Z,2.03
2018-07-08T04:10:20.165Z,1.90
2018-07-08T04:10:53.198Z,2.20
2018-07-08T04:11:26.246Z,2.10
2018-07-08T04:11:59.287Z,1.92
2018-07-08T04:12:33.120Z,2.22
2018-07-08T04:13:06.295Z,2.05
2018-07-08T04:13:40.093Z,2.00
2018-07-08T04:14:13.114Z,1.90
2018-07-08T04:14:46.164Z,1.85
2018-07-08T04:15:19.272Z,1.70
2018-07-08T04:15:52.245Z,2.10
2018-07-08T04:16:26.048Z,2.10
2018-07-08T04:16:59.090Z,1.80
2018-07-08T04:17:32.145Z,2.08
2018-07-08T04:18:05.206Z,1.80
2018-07-08T04:18:38.229Z,1.87
2018-07-08T04:19:12.027Z,2.17
2018-07-08T04:19:45.824Z,1.80
2018-07-08T04:20:19.627Z,2.55
2018-07-08T04:20:53.424Z,2.10
2018-07-08T04:21:26.460Z,2.15
2018-07-08T04:21:59.512Z,1.90
2018-07-08T04:22:32.560Z,1.90
2018-07-08T04:23:05.601Z,1.73
2018-07-08T04:23:38.644Z,2.00
2018-07-08T04:24:11.695Z,1.98
2018-07-08T04:24:44.724Z,2.50
2018-07-08T04:25:18.563Z,2.20
2018-07-08T04:25:51.587Z,2.20
2018-07-08T04:26:25.390Z,2.22
2018-07-08T04:26:59.192Z,2.20
2018-07-08T04:27:32.249Z,1.98
2018-07-08T04:28:06.052Z,2.08
2018-07-08T04:28:39.080Z,2.53
2018-07-08T04:29:12.127Z,2.12
2018-07-08T04:29:45.158Z,2.22
2018-07-08T04:30:18.992Z,2.17
2018-07-08T04:30:52.744Z,2.20
2018-07-08T04:31:26.556Z,2.30
2018-07-08T04:31:59.613Z,2.33
2018-07-08T04:32:34.251Z,2.17
2018-07-08T04:33:08.521Z,1.92
2018-07-08T04:33:41.552Z,2.08
2018-07-08T04:34:14.593Z,2.30
2018-07-08T04:34:48.408Z,1.83
2018-07-08T04:35:21.444Z,2.12
2018-07-08T04:35:55.244Z,2.37
2018-07-08T04:36:28.272Z,2.20
2018-07-08T04:37:01.300Z,2.45
2018-07-08T04:37:35.113Z,1.95
2018-07-08T04:38:08.914Z,2.10
2018-07-08T04:38:41.952Z,2.37
2018-07-08T04:39:15.759Z,1.75
2018-07-08T04:39:48.808Z,1.85
2018-07-08T04:40:21.839Z,2.25
2018-07-08T04:40:54.880Z,2.30
2018-07-08T04:41:28.687Z,1.87
2018-07-08T04:42:01.782Z,2.65
2018-07-08T04:42:34.828Z,1.80
2018-07-08T04:43:08.065Z,2.00
2018-07-08T04:43:41.327Z,2.12
2018-07-08T04:44:14.398Z,2.22
2018-07-08T04:44:47.420Z,2.10
2018-07-08T04:45:20.484Z,2.17
2018-07-08T04:45:53.532Z,2.20
2018-07-08T04:46:26.601Z,1.90
2018-07-08T04:46:59.647Z,2.20
2018-07-08T04:47:32.684Z,2.70
2018-07-08T04:48:05.738Z,2.05
2018-07-08T04:48:38.772Z,2.10
2018-07-08T04:49:11.859Z,2.05
2018-07-08T04:49:45.623Z,1.80
2018-07-08T04:50:18.672Z,2.12
2018-07-08T04:50:51.773Z,2.40
2018-07-08T04:51:25.563Z,2.00
2018-07-08T04:51:58.596Z,1.70
2018-07-08T04:52:31.613Z,2.08
2018-07-08T04:53:04.668Z,1.80
2018-07-08T04:53:38.498Z,1.85
2018-07-08T04:54:11.545Z,1.95
2018-07-08T04:54:45.361Z,1.98
2018-07-08T04:55:18.407Z,2.20
2018-07-08T04:55:51.434Z,2.12
2018-07-08T04:56:24.480Z,2.30
2018-07-08T04:56:57.508Z,1.60
2018-07-08T04:57:30.532Z,2.20
2018-07-08T04:58:03.588Z,1.90
2018-07-08T04:58:37.389Z,2.00
2018-07-08T04:59:11.180Z,2.08
2018-07-08T04:59:44.974Z,2.10
2018-07-08T05:00:18.008Z,1.92
2018-07-08T05:00:51.116Z,2.20
2018-07-08T05:01:24.095Z,1.95
2018-07-08T05:01:57.898Z,2.00
2018-07-08T05:02:31.007Z,2.20
2018-07-08T05:03:04.184Z,2.17
2018-07-08T05:03:37.220Z,1.80
2018-07-08T05:04:10.255Z,1.95
2018-07-08T05:04:43.287Z,2.10
2018-07-08T05:05:17.095Z,2.08
2018-07-08T05:05:50.148Z,1.90
2018-07-08T05:06:23.183Z,1.87
2018-07-08T05:06:56.213Z,1.92
2018-07-08T05:07:29.247Z,1.90
2018-07-08T05:08:02.284Z,2.25
2018-07-08T05:08:35.332Z,2.17
2018-07-08T05:09:08.357Z,1.73
2018-07-08T05:09:42.277Z,1.90
2018-07-08T05:10:15.310Z,1.70
2018-07-08T05:10:49.072Z,2.20
2018-07-08T05:11:22.120Z,2.03
2018-07-08T05:11:56.021Z,1.75
2018-07-08T05:12:29.050Z,1.95
2018-07-08T05:13:03.003Z,2.20
2018-07-08T05:13:36.036Z,2.47
2018-07-08T05:14:09.075Z,1.90
2018-07-08T05:14:42.092Z,2.03
2018-07-08T05:15:15.899Z,2.05
2018-07-08T05:15:48.941Z,2.10
2018-07-08T05:16:21.976Z,2.10
2018-07-08T05:16:55.861Z,1.80
2018-07-08T05:17:28.899Z,2.00
2018-07-08T05:18:01.972Z,1.90
2018-07-08T05:18:35.015Z,1.80
2018-07-08T05:19:08.056Z,1.77
2018-07-08T05:19:41.087Z,1.92
2018-07-08T05:20:14.123Z,2.00
2018-07-08T05:20:47.182Z,2.05
2018-07-08T05:21:20.217Z,1.92
2018-07-08T05:21:53.252Z,1.83
2018-07-08T05:22:26.297Z,1.98
2018-07-08T05:22:59.354Z,2.12
2018-07-08T05:23:33.145Z,1.90
2018-07-08T05:24:06.939Z,2.30
2018-07-08T05:24:40.738Z,1.95
2018-07-08T05:25:14.541Z,1.80
2018-07-08T05:25:47.595Z,1.92
2018-07-08T05:26:20.621Z,2.05
2018-07-08T05:26:53.656Z,1.80
2018-07-08T05:27:27.444Z,2.40
2018-07-08T05:28:00.505Z,1.92
2018-07-08T05:28:33.527Z,2.00
2018-07-08T05:29:06.606Z,2.00
2018-07-08T05:29:39.787Z,2.00
2018-07-08T05:30:13.598Z,2.20
2018-07-08T05:30:46.649Z,2.03
2018-07-08T05:31:19.692Z,2.10
2018-07-08T05:31:53.504Z,2.28
2018-07-08T05:32:27.910Z,2.08
2018-07-08T05:33:00.974Z,2.20
2018-07-08T05:33:34.014Z,2.35
2018-07-08T05:34:07.129Z,1.90
2018-07-08T05:34:40.947Z,1.95
2018-07-08T05:35:13.981Z,1.90
2018-07-08T05:35:47.133Z,2.10
2018-07-08T05:36:20.098Z,2.37
2018-07-08T05:36:53.131Z,2.00
2018-07-08T05:37:26.174Z,2.20
2018-07-08T05:37:59.986Z,2.20
2018-07-08T05:38:33.054Z,2.10
2018-07-08T05:39:06.869Z,2.00
2018-07-08T05:39:41.176Z,2.35
2018-07-08T05:40:14.983Z,1.85
2018-07-08T05:40:48.033Z,1.83
2018-07-08T05:41:21.105Z,1.95
2018-07-08T05:41:54.366Z,2.30
2018-07-08T05:42:27.438Z,1.92
2018-07-08T05:43:00.720Z,2.70
2018-07-08T05:43:34.802Z,1.85
2018-07-08T05:44:07.869Z,2.20
2018-07-08T05:44:40.919Z,1.87
2018-07-08T05:45:13.984Z,2.00
2018-07-08T05:45:47.033Z,2.10
2018-07-08T05:46:20.841Z,2.20
2018-07-08T05:46:53.899Z,2.12
2018-07-08T05:47:27.729Z,2.08
2018-07-08T05:48:01.048Z,1.92
2018-07-08T05:48:34.112Z,1.77
2018-07-08T05:49:07.188Z,2.20
2018-07-08T05:49:40.239Z,1.92
2018-07-08T05:50:13.351Z,2.20
2018-07-08T05:50:46.374Z,2.12
2018-07-08T05:51:19.478Z,2.40
2018-07-08T05:51:53.769Z,2.60
2018-07-08T05:52:30.751Z,2.30
2018-07-08T05:53:03.810Z,2.20
2018-07-08T05:53:36.887Z,1.92
2018-07-08T05:54:09.959Z,2.20
2018-07-08T05:54:43.032Z,2.10
2018-07-08T05:55:16.864Z,1.87
2018-07-08T05:55:49.910Z,2.17
2018-07-08T05:57:03.002Z,1.80
2018-07-08T05:57:39.066Z,2.20
2018-07-08T05:58:12.165Z,1.98
2018-07-08T05:58:46.231Z,1.73
2018-07-08T05:59:19.289Z,2.30
2018-07-08T05:59:53.495Z,1.95
2018-07-08T06:00:26.663Z,2.10
2018-07-08T06:01:00.527Z,2.15
2018-07-08T06:01:34.248Z,2.17
2018-07-08T06:02:08.049Z,1.50
2018-07-08T06:02:41.911Z,1.90
2018-07-08T06:03:15.982Z,2.10
2018-07-08T06:03:49.401Z,2.05
2018-07-08T06:04:22.490Z,1.80
2018-07-08T06:04:55.546Z,1.92
2018-07-08T06:05:28.638Z,2.12
2018-07-08T06:06:02.479Z,1.92
2018-07-08T06:06:35.545Z,2.05
2018-07-08T06:07:08.842Z,2.00
2018-07-08T06:07:41.932Z,1.90
2018-07-08T06:08:15.065Z,2.00
2018-07-08T06:08:49.685Z,2.30
2018-07-08T06:09:23.459Z,2.10
2018-07-08T06:10:04.373Z,2.12
2018-07-08T06:10:44.968Z,2.28
2018-07-08T06:11:22.955Z,2.08
2018-07-08T06:12:41.416Z,1.70
2018-07-08T06:13:14.500Z,1.77
2018-07-08T06:13:47.574Z,2.50
2018-07-08T06:14:21.500Z,1.90
2018-07-08T06:14:56.177Z,1.80
2018-07-08T06:15:29.310Z,1.92
2018-07-08T06:16:03.204Z,1.92
2018-07-08T06:16:37.022Z,1.80
2018-07-08T06:17:11.037Z,1.98
2018-07-08T06:17:44.255Z,1.87
2018-07-08T06:18:18.094Z,1.70
2018-07-08T06:18:51.857Z,2.05
2018-07-08T06:19:24.883Z,2.08
2018-07-08T06:19:58.000Z,2.10
2018-07-08T06:20:31.148Z,2.05
2018-07-08T06:21:05.469Z,2.35
2018-07-08T06:21:39.276Z,1.90
2018-07-08T06:22:13.482Z,1.80
2018-07-08T06:22:48.301Z,1.70
2018-07-08T06:23:22.466Z,2.08
2018-07-08T06:23:55.664Z,1.85
2018-07-08T06:24:30.653Z,1.60
2018-07-08T06:25:11.588Z,2.15
2018-07-08T06:25:47.465Z,1.70
2018-07-08T06:27:26.951Z,1.90
2018-07-08T06:28:02.236Z,1.90
2018-07-08T06:28:40.345Z,2.22
2018-07-08T06:30:05.276Z,1.92
2018-07-08T06:32:32.467Z,2.40
2018-07-08T06:34:15.563Z,1.98
2018-07-08T08:04:52.850Z,1.60
2018-07-08T08:05:43.240Z,1.87
2018-07-08T08:06:34.149Z,1.85
2018-07-08T08:25:17.801Z,1.30
2018-07-08T08:25:51.118Z,1.20
2018-07-08T08:27:20.040Z,1.42
2018-07-08T08:27:57.690Z,1.60
2018-07-08T08:28:35.389Z,1.55
2018-07-08T08:34:00.171Z,1.10
2018-07-08T08:39:15.781Z,1.40
2018-07-08T08:39:48.904Z,1.20
2018-07-08T08:40:42.338Z,1.20
2018-07-08T08:41:17.456Z,1.20
2018-07-08T08:41:54.554Z,1.23
2018-07-08T08:42:45.176Z,1.17
2018-07-08T08:43:18.756Z,1.40
2018-07-08T08:43:59.503Z,1.60
2018-07-08T08:44:34.355Z,1.52
2018-07-08T08:45:37.444Z,1.00
2018-07-08T08:46:11.803Z,1.42
2018-07-08T08:50:59.922Z,1.20
2018-07-08T08:53:43.772Z,1.20
2018-07-08T08:54:22.199Z,1.40
2018-07-08T09:23:31.225Z,1.27
2018-07-08T09:24:05.134Z,1.23
2018-07-08T09:24:38.132Z,1.50
2018-07-08T09:25:11.941Z,1.50
2018-07-08T09:25:46.678Z,1.30
2018-07-08T09:26:19.717Z,1.30
2018-07-08T09:26:52.757Z,1.55
2018-07-08T09:27:27.804Z,1.20
2018-07-08T09:28:00.840Z,1.20
2018-07-08T09:28:34.689Z,1.75
2018-07-08T09:29:08.383Z,1.48
2018-07-08T09:29:41.458Z,1.40
2018-07-08T09:30:14.537Z,1.48
2018-07-08T09:30:47.600Z,1.50
2018-07-08T09:31:21.436Z,1.20
2018-07-08T09:31:55.544Z,1.37
2018-07-08T09:32:28.639Z,1.25
2018-07-08T09:33:01.685Z,1.40
2018-07-08T09:33:34.715Z,1.30
2018-07-08T09:34:07.765Z,1.25
2018-07-08T09:34:40.816Z,1.50
2018-07-08T09:35:14.630Z,1.12
2018-07-08T09:40:50.249Z,1.33
2018-07-08T09:41:23.573Z,1.40
2018-07-08T09:44:13.797Z,1.35
2018-07-08T09:44:46.898Z,1.40
2018-07-08T09:45:19.978Z,1.65
2018-07-08T09:45:53.105Z,1.25
2018-07-08T09:47:07.973Z,1.40
2018-07-08T09:47:42.281Z,1.10
2018-07-08T09:48:15.321Z,1.17
2018-07-08T09:48:53.098Z,1.12
2018-07-08T09:49:26.909Z,1.10
2018-07-08T09:49:59.961Z,1.08
2018-07-08T09:50:36.707Z,1.30
2018-07-08T09:51:11.248Z,1.15
2018-07-08T09:51:44.352Z,1.20
2018-07-08T09:52:17.355Z,1.42
2018-07-08T09:52:50.400Z,0.90
2018-07-08T09:53:23.464Z,1.30
2018-07-08T09:53:56.513Z,1.10
2018-07-08T09:54:29.583Z,1.52
2018-07-08T09:55:02.633Z,1.00
2018-07-08T09:55:35.691Z,0.90
2018-07-08T09:56:08.732Z,0.88
2018-07-08T09:56:41.777Z,1.10
2018-07-08T09:57:15.592Z,1.23
2018-07-08T09:57:49.401Z,1.42
2018-07-08T09:58:23.209Z,1.20
2018-07-08T09:58:56.297Z,1.20
2018-07-08T09:59:29.353Z,1.23
2018-07-08T10:00:02.409Z,1.10
2018-07-08T10:00:35.452Z,1.10
2018-07-08T10:01:09.304Z,1.00
2018-07-08T10:01:42.365Z,0.98
2018-07-08T10:02:15.627Z,1.27
2018-07-08T10:02:49.459Z,1.25
2018-07-08T10:03:22.498Z,1.33
2018-07-08T10:03:55.535Z,1.23
2018-07-08T10:04:29.358Z,1.15
2018-07-08T10:05:02.394Z,1.17
2018-07-08T10:05:35.437Z,1.20
2018-07-08T10:06:08.476Z,1.20
2018-07-08T10:06:41.525Z,1.23
2018-07-08T10:07:14.575Z,1.00
2018-07-08T10:07:47.644Z,1.52
2018-07-08T10:08:20.686Z,1.27
2018-07-08T10:08:54.485Z,1.10
2018-07-08T10:09:27.532Z,1.20
2018-07-08T10:10:00.576Z,1.27
2018-07-08T10:10:33.617Z,1.30
2018-07-08T10:11:06.655Z,1.20
2018-07-08T10:11:39.713Z,1.27
2018-07-08T10:12:13.529Z,0.90
2018-07-08T10:12:46.564Z,1.00
2018-07-08T10:13:19.590Z,0.95
2018-07-08T10:13:52.706Z,1.00
2018-07-08T10:14:25.669Z,1.12
2018-07-08T10:14:58.715Z,1.15
2018-07-08T10:15:31.744Z,1.05
2018-07-08T10:16:04.783Z,1.00
2018-07-08T10:16:37.839Z,1.35
2018-07-08T10:17:10.879Z,1.10
2018-07-08T10:17:43.931Z,0.90
2018-07-08T10:18:16.965Z,1.25
2018-07-08T10:18:49.993Z,1.30
2018-07-08T10:19:23.108Z,1.10
2018-07-08T10:19:56.331Z,1.23
2018-07-08T10:20:29.111Z,1.25
2018-07-08T10:21:02.164Z,1.10
2018-07-08T10:21:35.263Z,1.10
2018-07-08T10:22:09.051Z,1.10
2018-07-08T10:22:42.106Z,0.95
2018-07-08T10:23:15.140Z,0.90
2018-07-08T10:23:48.190Z,1.10
2018-07-08T10:24:21.238Z,1.00
2018-07-08T10:24:54.279Z,1.08
2018-07-08T10:25:27.381Z,1.75
2018-07-08T10:26:00.345Z,1.10
2018-07-08T10:26:33.404Z,1.00
2018-07-08T10:27:06.465Z,0.85
2018-07-08T10:27:39.512Z,1.30
2018-07-08T10:28:12.560Z,1.00
2018-07-08T10:28:45.611Z,0.93
2018-07-08T10:29:18.647Z,1.10
2018-07-08T10:29:52.451Z,1.15
2018-07-08T10:30:25.519Z,1.15
2018-07-08T10:30:58.536Z,1.92
2018-07-08T10:31:31.581Z,1.10
2018-07-08T10:32:04.639Z,1.15
2018-07-08T10:32:38.461Z,0.93
2018-07-08T10:33:11.501Z,1.20
2018-07-08T10:33:45.312Z,1.25
2018-07-08T10:34:18.352Z,1.00
2018-07-08T10:34:51.384Z,1.33
2018-07-08T10:35:24.422Z,1.52
2018-07-08T10:35:58.215Z,1.00
2018-07-08T10:36:32.057Z,1.02
2018-07-08T10:37:05.852Z,1.20
2018-07-08T10:37:39.031Z,1.50
2018-07-08T10:38:12.252Z,1.27
2018-07-08T10:38:45.270Z,1.00
2018-07-08T10:39:18.311Z,0.98
2018-07-08T10:39:52.108Z,1.12
2018-07-08T10:40:25.908Z,1.15
2018-07-08T10:40:58.961Z,1.08
2018-07-08T10:41:31.990Z,1.17
2018-07-08T10:42:05.040Z,1.20
2018-07-08T10:42:38.078Z,1.17
2018-07-08T10:43:11.116Z,1.30
2018-07-08T10:43:44.153Z,1.60
2018-07-08T10:44:17.200Z,1.08
2018-07-08T10:44:50.260Z,1.23
2018-07-08T10:45:23.286Z,1.58
2018-07-08T10:45:56.320Z,1.33
2018-07-08T10:46:29.384Z,1.10
2018-07-08T10:47:02.446Z,1.50
2018-07-08T10:47:35.494Z,1.23
2018-07-08T10:48:08.521Z,1.40
2018-07-08T10:48:41.558Z,1.15
2018-07-08T10:49:14.591Z,1.40
2018-07-08T10:49:48.392Z,1.75